sensor_id;sensor_type;location;lat;lon;timestamp;temperature;humidity
61255;DHT22;47128;47.530;8.584;2023-01-15T00:00:10;8.10;99.90
61255;DHT22;47128;47.530;8.584;2023-01-15T00:02:35;8.10;99.90
61255;DHT22;47128;47.530;8.584;2023-01-15T00:05:01;8.20;99.90
61255;DHT22;47128;47.530;8.584;2023-01-15T00:07:28;8.20;99.90
61255;DHT22;47128;47.530;8.584;2023-01-15T00:09:53;8.40;99.90
61255;DHT22;47128;47.530;8.584;2023-01-15T00:12:19;8.40;99.90
61255;DHT22;47128;47.530;8.584;2023-01-15T00:14:44;8.50;99.90
61255;DHT22;47128;47.530;8.584;2023-01-15T00:17:10;8.50;99.90
61255;DHT22;47128;47.530;8.584;2023-01-15T00:19:35;8.50;99.90
61255;DHT22;47128;47.530;8.584;2023-01-15T00:22:01;8.50;99.90
61255;DHT22;47128;47.530;8.584;2023-01-15T00:24:26;8.40;99.90
61255;DHT22;47128;47.530;8.584;2023-01-15T00:27:10;8.50;99.90
61255;DHT22;47128;47.530;8.584;2023-01-15T00:29:55;8.50;99.90
61255;DHT22;47128;47.530;8.584;2023-01-15T00:32:20;8.50;99.90
61255;DHT22;47128;47.530;8.584;2023-01-15T00:34:45;8.40;99.90
61255;DHT22;47128;47.530;8.584;2023-01-15T00:37:11;8.40;99.90
61255;DHT22;47128;47.530;8.584;2023-01-15T00:39:36;8.70;99.90
61255;DHT22;47128;47.530;8.584;2023-01-15T00:42:02;9.10;99.60
61255;DHT22;47128;47.530;8.584;2023-01-15T00:44:27;9.70;98.00
61255;DHT22;47128;47.530;8.584;2023-01-15T00:46:53;9.80;98.50
61255;DHT22;47128;47.530;8.584;2023-01-15T00:49:18;9.90;98.50
61255;DHT22;47128;47.530;8.584;2023-01-15T00:51:44;9.80;99.50
61255;DHT22;47128;47.530;8.584;2023-01-15T00:54:09;9.90;98.50
61255;DHT22;47128;47.530;8.584;2023-01-15T00:56:35;10.30;96.60
61255;DHT22;47128;47.530;8.584;2023-01-15T00:59:01;10.20;98.00
61255;DHT22;47128;47.530;8.584;2023-01-15T01:01:27;10.20;96.80
61255;DHT22;47128;47.530;8.584;2023-01-15T01:03:53;10.20;97.40
61255;DHT22;47128;47.530;8.584;2023-01-15T01:06:18;10.40;95.40
61255;DHT22;47128;47.530;8.584;2023-01-15T01:08:44;10.40;97.70
61255;DHT22;47128;47.530;8.584;2023-01-15T01:11:14;10.60;95.10
61255;DHT22;47128;47.530;8.584;2023-01-15T01:13:39;10.70;95.20
61255;DHT22;47128;47.530;8.584;2023-01-15T01:18:46;10.70;94.40
61255;DHT22;47128;47.530;8.584;2023-01-15T01:21:11;10.80;93.90
61255;DHT22;47128;47.530;8.584;2023-01-15T01:23:36;10.90;94.00
61255;DHT22;47128;47.530;8.584;2023-01-15T01:26:02;11.00;93.90
61255;DHT22;47128;47.530;8.584;2023-01-15T01:28:27;10.90;94.10
61255;DHT22;47128;47.530;8.584;2023-01-15T01:30:53;10.90;94.20
61255;DHT22;47128;47.530;8.584;2023-01-15T01:33:18;10.80;95.00
61255;DHT22;47128;47.530;8.584;2023-01-15T01:35:47;10.70;94.70
61255;DHT22;47128;47.530;8.584;2023-01-15T01:38:13;10.70;95.10
61255;DHT22;47128;47.530;8.584;2023-01-15T01:40:39;10.60;95.00
61255;DHT22;47128;47.530;8.584;2023-01-15T01:43:11;10.70;94.90
61255;DHT22;47128;47.530;8.584;2023-01-15T01:45:41;10.80;94.60
61255;DHT22;47128;47.530;8.584;2023-01-15T01:48:08;10.80;94.80
61255;DHT22;47128;47.530;8.584;2023-01-15T01:50:33;10.80;95.00
61255;DHT22;47128;47.530;8.584;2023-01-15T01:53:04;10.60;95.50
61255;DHT22;47128;47.530;8.584;2023-01-15T01:55:32;10.60;95.70
61255;DHT22;47128;47.530;8.584;2023-01-15T01:57:58;10.70;95.40
61255;DHT22;47128;47.530;8.584;2023-01-15T02:00:24;10.70;95.30
61255;DHT22;47128;47.530;8.584;2023-01-15T02:02:50;10.70;95.80
61255;DHT22;47128;47.530;8.584;2023-01-15T02:05:22;10.70;95.20
61255;DHT22;47128;47.530;8.584;2023-01-15T02:07:47;10.60;95.90
61255;DHT22;47128;47.530;8.584;2023-01-15T02:10:14;10.60;96.30
61255;DHT22;47128;47.530;8.584;2023-01-15T02:12:39;10.60;96.10
61255;DHT22;47128;47.530;8.584;2023-01-15T02:15:09;10.50;96.30
61255;DHT22;47128;47.530;8.584;2023-01-15T02:17:43;10.60;96.60
61255;DHT22;47128;47.530;8.584;2023-01-15T02:20:15;10.70;96.20
61255;DHT22;47128;47.530;8.584;2023-01-15T02:22:47;10.70;96.60
61255;DHT22;47128;47.530;8.584;2023-01-15T02:25:23;10.70;96.30
61255;DHT22;47128;47.530;8.584;2023-01-15T02:27:54;10.60;96.50
61255;DHT22;47128;47.530;8.584;2023-01-15T02:30:24;10.50;97.30
61255;DHT22;47128;47.530;8.584;2023-01-15T02:32:53;10.50;97.10
61255;DHT22;47128;47.530;8.584;2023-01-15T02:35:24;10.50;97.20
61255;DHT22;47128;47.530;8.584;2023-01-15T02:37:53;10.40;97.60
61255;DHT22;47128;47.530;8.584;2023-01-15T02:40:20;10.50;97.50
61255;DHT22;47128;47.530;8.584;2023-01-15T02:42:46;10.50;97.80
61255;DHT22;47128;47.530;8.584;2023-01-15T02:45:13;10.40;97.80
61255;DHT22;47128;47.530;8.584;2023-01-15T02:47:40;10.40;98.00
61255;DHT22;47128;47.530;8.584;2023-01-15T02:50:08;10.30;98.40
61255;DHT22;47128;47.530;8.584;2023-01-15T02:52:36;10.30;98.60
61255;DHT22;47128;47.530;8.584;2023-01-15T02:55:05;10.30;98.90
61255;DHT22;47128;47.530;8.584;2023-01-15T02:57:32;10.40;98.60
61255;DHT22;47128;47.530;8.584;2023-01-15T03:00:00;10.40;98.60
61255;DHT22;47128;47.530;8.584;2023-01-15T03:02:28;10.30;99.20
61255;DHT22;47128;47.530;8.584;2023-01-15T03:05:00;10.30;99.40
61255;DHT22;47128;47.530;8.584;2023-01-15T03:07:32;10.20;99.40
61255;DHT22;47128;47.530;8.584;2023-01-15T03:09:59;10.30;99.60
61255;DHT22;47128;47.530;8.584;2023-01-15T03:12:46;10.20;99.90
61255;DHT22;47128;47.530;8.584;2023-01-15T03:15:35;10.20;99.70
61255;DHT22;47128;47.530;8.584;2023-01-15T03:18:21;10.30;99.90
61255;DHT22;47128;47.530;8.584;2023-01-15T03:20:49;10.30;99.90
61255;DHT22;47128;47.530;8.584;2023-01-15T03:23:15;10.30;99.90
61255;DHT22;47128;47.530;8.584;2023-01-15T03:25:45;10.30;99.90
61255;DHT22;47128;47.530;8.584;2023-01-15T03:28:13;10.20;99.90
61255;DHT22;47128;47.530;8.584;2023-01-15T03:30:39;10.30;99.90
61255;DHT22;47128;47.530;8.584;2023-01-15T03:33:05;10.20;99.90
61255;DHT22;47128;47.530;8.584;2023-01-15T03:35:41;10.30;99.90
61255;DHT22;47128;47.530;8.584;2023-01-15T03:38:08;10.40;99.90
61255;DHT22;47128;47.530;8.584;2023-01-15T03:40:34;10.30;99.90
61255;DHT22;47128;47.530;8.584;2023-01-15T03:43:03;10.40;99.90
61255;DHT22;47128;47.530;8.584;2023-01-15T03:45:48;10.40;99.90
61255;DHT22;47128;47.530;8.584;2023-01-15T03:48:19;10.30;99.90
61255;DHT22;47128;47.530;8.584;2023-01-15T03:50:51;10.30;99.90
61255;DHT22;47128;47.530;8.584;2023-01-15T03:53:22;10.30;99.90
61255;DHT22;47128;47.530;8.584;2023-01-15T03:58:17;10.20;99.90
61255;DHT22;47128;47.530;8.584;2023-01-15T04:00:44;10.30;99.90
61255;DHT22;47128;47.530;8.584;2023-01-15T04:03:12;10.30;99.90
61255;DHT22;47128;47.530;8.584;2023-01-15T04:05:39;10.20;99.90
61255;DHT22;47128;47.530;8.584;2023-01-15T04:08:05;10.20;99.90
61255;DHT22;47128;47.530;8.584;2023-01-15T04:10:30;10.30;99.90
61255;DHT22;47128;47.530;8.584;2023-01-15T04:12:56;10.30;99.90
61255;DHT22;47128;47.530;8.584;2023-01-15T04:15:21;10.20;99.90
61255;DHT22;47128;47.530;8.584;2023-01-15T04:17:47;10.20;99.90
61255;DHT22;47128;47.530;8.584;2023-01-15T04:20:12;10.20;99.90
61255;DHT22;47128;47.530;8.584;2023-01-15T04:22:38;10.20;99.90
61255;DHT22;47128;47.530;8.584;2023-01-15T04:25:04;10.10;99.90
61255;DHT22;47128;47.530;8.584;2023-01-15T04:27:32;10.20;99.90
61255;DHT22;47128;47.530;8.584;2023-01-15T04:29:57;10.10;99.90
61255;DHT22;47128;47.530;8.584;2023-01-15T04:32:23;10.20;99.90
61255;DHT22;47128;47.530;8.584;2023-01-15T04:34:48;10.10;99.90
61255;DHT22;47128;47.530;8.584;2023-01-15T04:37:14;10.20;99.90
61255;DHT22;47128;47.530;8.584;2023-01-15T04:39:40;10.10;99.90
61255;DHT22;47128;47.530;8.584;2023-01-15T04:42:06;10.10;99.90
61255;DHT22;47128;47.530;8.584;2023-01-15T04:44:52;10.10;99.90
61255;DHT22;47128;47.530;8.584;2023-01-15T04:47:17;10.10;99.90
61255;DHT22;47128;47.530;8.584;2023-01-15T04:49:42;10.20;99.90
61255;DHT22;47128;47.530;8.584;2023-01-15T04:52:08;10.20;99.90
61255;DHT22;47128;47.530;8.584;2023-01-15T04:54:33;10.20;99.90
61255;DHT22;47128;47.530;8.584;2023-01-15T04:56:59;10.20;99.90
61255;DHT22;47128;47.530;8.584;2023-01-15T04:59:25;10.20;99.90
61255;DHT22;47128;47.530;8.584;2023-01-15T05:01:50;10.30;99.90
61255;DHT22;47128;47.530;8.584;2023-01-15T05:04:16;10.30;99.90
61255;DHT22;47128;47.530;8.584;2023-01-15T05:06:42;10.40;99.90
61255;DHT22;47128;47.530;8.584;2023-01-15T05:09:07;10.40;99.90
61255;DHT22;47128;47.530;8.584;2023-01-15T05:11:34;10.50;99.90
61255;DHT22;47128;47.530;8.584;2023-01-15T05:13:59;10.50;99.90
61255;DHT22;47128;47.530;8.584;2023-01-15T05:16:26;10.50;99.90
61255;DHT22;47128;47.530;8.584;2023-01-15T05:18:53;10.50;99.90
61255;DHT22;47128;47.530;8.584;2023-01-15T05:21:24;10.70;99.90
61255;DHT22;47128;47.530;8.584;2023-01-15T05:23:51;10.70;99.90
61255;DHT22;47128;47.530;8.584;2023-01-15T05:26:17;10.70;99.90
61255;DHT22;47128;47.530;8.584;2023-01-15T05:28:42;10.70;99.90
61255;DHT22;47128;47.530;8.584;2023-01-15T05:31:09;10.90;99.90
61255;DHT22;47128;47.530;8.584;2023-01-15T05:33:35;10.80;99.90
61255;DHT22;47128;47.530;8.584;2023-01-15T05:36:05;10.70;99.90
61255;DHT22;47128;47.530;8.584;2023-01-15T05:38:31;10.70;99.90
61255;DHT22;47128;47.530;8.584;2023-01-15T05:40:56;10.70;99.90
61255;DHT22;47128;47.530;8.584;2023-01-15T05:43:22;10.70;99.90
61255;DHT22;47128;47.530;8.584;2023-01-15T05:45:47;10.70;99.90
61255;DHT22;47128;47.530;8.584;2023-01-15T05:48:13;10.60;99.90
61255;DHT22;47128;47.530;8.584;2023-01-15T05:50:38;10.60;99.90
61255;DHT22;47128;47.530;8.584;2023-01-15T05:53:04;10.50;99.90
61255;DHT22;47128;47.530;8.584;2023-01-15T05:55:29;10.40;99.90
61255;DHT22;47128;47.530;8.584;2023-01-15T05:57:54;10.50;99.90
61255;DHT22;47128;47.530;8.584;2023-01-15T06:00:22;10.40;99.90
61255;DHT22;47128;47.530;8.584;2023-01-15T06:02:48;10.50;99.90
61255;DHT22;47128;47.530;8.584;2023-01-15T06:05:14;10.40;99.90
61255;DHT22;47128;47.530;8.584;2023-01-15T06:07:46;10.40;99.90
61255;DHT22;47128;47.530;8.584;2023-01-15T06:10:12;10.40;99.90
61255;DHT22;47128;47.530;8.584;2023-01-15T06:12:37;10.40;99.90
61255;DHT22;47128;47.530;8.584;2023-01-15T06:15:02;10.40;99.90
61255;DHT22;47128;47.530;8.584;2023-01-15T06:17:28;10.40;99.90
61255;DHT22;47128;47.530;8.584;2023-01-15T06:19:53;10.40;99.90
61255;DHT22;47128;47.530;8.584;2023-01-15T06:22:19;10.30;99.90
61255;DHT22;47128;47.530;8.584;2023-01-15T06:24:44;10.40;99.90
61255;DHT22;47128;47.530;8.584;2023-01-15T06:27:10;10.40;99.90
61255;DHT22;47128;47.530;8.584;2023-01-15T06:29:35;10.30;99.90
61255;DHT22;47128;47.530;8.584;2023-01-15T06:32:01;10.30;99.90
61255;DHT22;47128;47.530;8.584;2023-01-15T06:34:26;10.40;99.90
61255;DHT22;47128;47.530;8.584;2023-01-15T06:36:51;10.30;99.90
61255;DHT22;47128;47.530;8.584;2023-01-15T06:39:17;10.30;99.90
61255;DHT22;47128;47.530;8.584;2023-01-15T06:41:42;10.30;99.90
61255;DHT22;47128;47.530;8.584;2023-01-15T06:44:27;10.30;99.90
61255;DHT22;47128;47.530;8.584;2023-01-15T06:47:15;10.30;99.90
61255;DHT22;47128;47.530;8.584;2023-01-15T06:49:51;10.40;99.90
61255;DHT22;47128;47.530;8.584;2023-01-15T06:52:17;10.30;99.90
61255;DHT22;47128;47.530;8.584;2023-01-15T06:54:42;10.20;99.90
61255;DHT22;47128;47.530;8.584;2023-01-15T06:57:08;10.20;99.90
61255;DHT22;47128;47.530;8.584;2023-01-15T06:59:33;10.20;99.90
61255;DHT22;47128;47.530;8.584;2023-01-15T07:01:59;10.30;99.90
61255;DHT22;47128;47.530;8.584;2023-01-15T07:04:24;10.30;99.90
61255;DHT22;47128;47.530;8.584;2023-01-15T07:06:50;10.40;99.90
61255;DHT22;47128;47.530;8.584;2023-01-15T07:09:15;10.30;99.90
61255;DHT22;47128;47.530;8.584;2023-01-15T07:11:41;10.30;99.90
61255;DHT22;47128;47.530;8.584;2023-01-15T07:14:16;10.30;99.90
61255;DHT22;47128;47.530;8.584;2023-01-15T07:16:42;10.30;99.90
61255;DHT22;47128;47.530;8.584;2023-01-15T07:19:07;10.30;99.90
61255;DHT22;47128;47.530;8.584;2023-01-15T07:21:33;10.20;99.90
61255;DHT22;47128;47.530;8.584;2023-01-15T07:23:58;10.20;99.90
61255;DHT22;47128;47.530;8.584;2023-01-15T07:26:24;10.20;99.90
61255;DHT22;47128;47.530;8.584;2023-01-15T07:28:50;10.20;99.90
61255;DHT22;47128;47.530;8.584;2023-01-15T07:31:15;10.20;99.90
61255;DHT22;47128;47.530;8.584;2023-01-15T07:33:41;10.30;99.90
61255;DHT22;47128;47.530;8.584;2023-01-15T07:36:06;10.20;99.90
61255;DHT22;47128;47.530;8.584;2023-01-15T07:38:32;10.20;99.90
61255;DHT22;47128;47.530;8.584;2023-01-15T07:40:58;10.20;99.90
61255;DHT22;47128;47.530;8.584;2023-01-15T07:43:42;10.30;99.90
61255;DHT22;47128;47.530;8.584;2023-01-15T07:46:26;10.30;99.90
61255;DHT22;47128;47.530;8.584;2023-01-15T07:49:10;10.30;99.90
61255;DHT22;47128;47.530;8.584;2023-01-15T07:51:54;10.40;99.90
61255;DHT22;47128;47.530;8.584;2023-01-15T07:54:20;10.50;99.90
61255;DHT22;47128;47.530;8.584;2023-01-15T07:56:45;10.50;99.90
61255;DHT22;47128;47.530;8.584;2023-01-15T07:59:11;10.60;99.90
61255;DHT22;47128;47.530;8.584;2023-01-15T08:01:36;10.70;99.90
61255;DHT22;47128;47.530;8.584;2023-01-15T08:04:02;10.70;99.90
61255;DHT22;47128;47.530;8.584;2023-01-15T08:06:27;10.70;99.90
61255;DHT22;47128;47.530;8.584;2023-01-15T08:08:53;10.80;99.90
61255;DHT22;47128;47.530;8.584;2023-01-15T08:11:18;10.70;99.90
61255;DHT22;47128;47.530;8.584;2023-01-15T08:14:02;10.80;99.90
61255;DHT22;47128;47.530;8.584;2023-01-15T08:16:47;10.70;99.90
61255;DHT22;47128;47.530;8.584;2023-01-15T08:19:12;10.80;99.90
61255;DHT22;47128;47.530;8.584;2023-01-15T08:21:38;10.60;99.90
61255;DHT22;47128;47.530;8.584;2023-01-15T08:24:03;10.30;99.90
61255;DHT22;47128;47.530;8.584;2023-01-15T08:26:29;9.90;99.90
61255;DHT22;47128;47.530;8.584;2023-01-15T08:28:54;9.50;99.90
61255;DHT22;47128;47.530;8.584;2023-01-15T08:31:20;9.20;99.90
61255;DHT22;47128;47.530;8.584;2023-01-15T08:33:45;9.00;99.90
61255;DHT22;47128;47.530;8.584;2023-01-15T08:36:10;8.90;99.90
61255;DHT22;47128;47.530;8.584;2023-01-15T08:38:36;8.80;99.90
61255;DHT22;47128;47.530;8.584;2023-01-15T08:41:01;8.70;99.90
61255;DHT22;47128;47.530;8.584;2023-01-15T08:43:29;8.60;99.90
61255;DHT22;47128;47.530;8.584;2023-01-15T08:45:55;8.40;99.90
61255;DHT22;47128;47.530;8.584;2023-01-15T08:48:22;8.40;99.90
61255;DHT22;47128;47.530;8.584;2023-01-15T08:50:47;8.30;99.90
61255;DHT22;47128;47.530;8.584;2023-01-15T08:53:15;8.30;99.90
61255;DHT22;47128;47.530;8.584;2023-01-15T08:55:40;8.20;99.90
61255;DHT22;47128;47.530;8.584;2023-01-15T08:58:06;8.20;99.90
61255;DHT22;47128;47.530;8.584;2023-01-15T09:00:31;8.10;99.90
61255;DHT22;47128;47.530;8.584;2023-01-15T09:02:57;8.10;99.90
61255;DHT22;47128;47.530;8.584;2023-01-15T09:05:22;8.00;99.90
61255;DHT22;47128;47.530;8.584;2023-01-15T09:07:48;7.90;99.90
61255;DHT22;47128;47.530;8.584;2023-01-15T09:10:13;7.90;99.90
61255;DHT22;47128;47.530;8.584;2023-01-15T09:12:39;8.00;99.90
61255;DHT22;47128;47.530;8.584;2023-01-15T09:15:04;7.80;99.90
61255;DHT22;47128;47.530;8.584;2023-01-15T09:17:30;7.80;99.90
61255;DHT22;47128;47.530;8.584;2023-01-15T09:19:56;7.70;99.90
61255;DHT22;47128;47.530;8.584;2023-01-15T09:22:21;7.70;99.90
61255;DHT22;47128;47.530;8.584;2023-01-15T09:24:47;7.60;99.90
61255;DHT22;47128;47.530;8.584;2023-01-15T09:27:12;7.60;99.90
61255;DHT22;47128;47.530;8.584;2023-01-15T09:29:38;7.50;99.90
61255;DHT22;47128;47.530;8.584;2023-01-15T09:32:03;7.50;99.90
61255;DHT22;47128;47.530;8.584;2023-01-15T09:34:29;7.30;99.90
61255;DHT22;47128;47.530;8.584;2023-01-15T09:36:54;7.30;99.90
61255;DHT22;47128;47.530;8.584;2023-01-15T09:39:19;7.20;99.90
61255;DHT22;47128;47.530;8.584;2023-01-15T09:49:48;7.20;99.90
61255;DHT22;47128;47.530;8.584;2023-01-15T09:55:09;6.80;99.90
61255;DHT22;47128;47.530;8.584;2023-01-15T09:57:36;6.70;99.90
61255;DHT22;47128;47.530;8.584;2023-01-15T10:00:02;6.70;99.90
61255;DHT22;47128;47.530;8.584;2023-01-15T10:02:40;6.70;99.90
61255;DHT22;47128;47.530;8.584;2023-01-15T10:05:14;6.70;99.90
61255;DHT22;47128;47.530;8.584;2023-01-15T10:08:05;6.70;99.90
61255;DHT22;47128;47.530;8.584;2023-01-15T10:10:39;6.60;99.90
61255;DHT22;47128;47.530;8.584;2023-01-15T10:13:13;6.50;99.90
61255;DHT22;47128;47.530;8.584;2023-01-15T10:15:43;6.50;99.90
61255;DHT22;47128;47.530;8.584;2023-01-15T10:18:12;6.40;99.90
61255;DHT22;47128;47.530;8.584;2023-01-15T10:20:46;6.40;99.90
61255;DHT22;47128;47.530;8.584;2023-01-15T10:23:22;6.30;99.90
61255;DHT22;47128;47.530;8.584;2023-01-15T10:25:50;6.20;99.90
61255;DHT22;47128;47.530;8.584;2023-01-15T10:28:23;6.20;99.90
61255;DHT22;47128;47.530;8.584;2023-01-15T10:30:50;6.30;99.90
61255;DHT22;47128;47.530;8.584;2023-01-15T10:36:06;6.20;99.90
61255;DHT22;47128;47.530;8.584;2023-01-15T10:38:48;6.20;99.90
61255;DHT22;47128;47.530;8.584;2023-01-15T10:43:48;6.30;99.90
61255;DHT22;47128;47.530;8.584;2023-01-15T10:46:16;6.30;99.90
61255;DHT22;47128;47.530;8.584;2023-01-15T10:48:43;6.20;99.90
61255;DHT22;47128;47.530;8.584;2023-01-15T10:51:17;6.10;99.90
61255;DHT22;47128;47.530;8.584;2023-01-15T10:56:55;5.90;99.90
61255;DHT22;47128;47.530;8.584;2023-01-15T10:59:20;5.90;99.90
61255;DHT22;47128;47.530;8.584;2023-01-15T11:01:48;5.90;99.90
61255;DHT22;47128;47.530;8.584;2023-01-15T11:04:16;5.80;99.90
61255;DHT22;47128;47.530;8.584;2023-01-15T11:06:41;5.90;99.90
61255;DHT22;47128;47.530;8.584;2023-01-15T11:09:08;5.90;99.90
61255;DHT22;47128;47.530;8.584;2023-01-15T11:11:34;5.90;99.90
61255;DHT22;47128;47.530;8.584;2023-01-15T11:14:20;5.90;99.90
61255;DHT22;47128;47.530;8.584;2023-01-15T11:17:14;5.90;99.90
61255;DHT22;47128;47.530;8.584;2023-01-15T11:19:58;6.00;99.90
61255;DHT22;47128;47.530;8.584;2023-01-15T11:22:23;6.00;99.90
61255;DHT22;47128;47.530;8.584;2023-01-15T11:24:53;6.00;99.90
61255;DHT22;47128;47.530;8.584;2023-01-15T11:27:21;5.90;99.90
61255;DHT22;47128;47.530;8.584;2023-01-15T11:29:51;5.80;99.90
61255;DHT22;47128;47.530;8.584;2023-01-15T11:32:35;5.80;99.90
61255;DHT22;47128;47.530;8.584;2023-01-15T11:35:09;5.80;99.90
61255;DHT22;47128;47.530;8.584;2023-01-15T11:37:38;5.80;99.90
61255;DHT22;47128;47.530;8.584;2023-01-15T11:40:03;5.80;99.90
61255;DHT22;47128;47.530;8.584;2023-01-15T11:42:32;5.70;99.90
61255;DHT22;47128;47.530;8.584;2023-01-15T11:45:18;5.70;99.90
61255;DHT22;47128;47.530;8.584;2023-01-15T11:48:12;5.40;99.90
61255;DHT22;47128;47.530;8.584;2023-01-15T11:51:01;5.50;99.90
61255;DHT22;47128;47.530;8.584;2023-01-15T11:53:28;5.50;99.90
61255;DHT22;47128;47.530;8.584;2023-01-15T11:56:00;5.50;99.90
61255;DHT22;47128;47.530;8.584;2023-01-15T11:58:27;5.60;99.90
61255;DHT22;47128;47.530;8.584;2023-01-15T12:00:53;5.50;99.90
61255;DHT22;47128;47.530;8.584;2023-01-15T12:03:21;5.50;99.90
61255;DHT22;47128;47.530;8.584;2023-01-15T12:05:53;5.50;99.90
61255;DHT22;47128;47.530;8.584;2023-01-15T12:08:27;5.50;99.90
61255;DHT22;47128;47.530;8.584;2023-01-15T12:16:21;5.40;99.90
61255;DHT22;47128;47.530;8.584;2023-01-15T12:21:20;5.30;99.90
61255;DHT22;47128;47.530;8.584;2023-01-15T12:23:52;5.30;99.90
61255;DHT22;47128;47.530;8.584;2023-01-15T12:26:29;5.40;99.90
61255;DHT22;47128;47.530;8.584;2023-01-15T12:31:37;5.30;99.90
61255;DHT22;47128;47.530;8.584;2023-01-15T12:34:06;5.20;99.90
61255;DHT22;47128;47.530;8.584;2023-01-15T12:36:39;5.20;99.90
61255;DHT22;47128;47.530;8.584;2023-01-15T12:39:14;5.30;99.90
61255;DHT22;47128;47.530;8.584;2023-01-15T12:41:42;5.20;99.90
61255;DHT22;47128;47.530;8.584;2023-01-15T12:44:47;5.20;99.90
61255;DHT22;47128;47.530;8.584;2023-01-15T12:52:35;5.20;99.90
61255;DHT22;47128;47.530;8.584;2023-01-15T12:57:35;5.10;99.90
61255;DHT22;47128;47.530;8.584;2023-01-15T13:00:03;5.10;99.90
61255;DHT22;47128;47.530;8.584;2023-01-15T13:02:35;5.20;99.90
61255;DHT22;47128;47.530;8.584;2023-01-15T13:05:21;5.20;99.90
61255;DHT22;47128;47.530;8.584;2023-01-15T13:08:05;5.20;99.90
61255;DHT22;47128;47.530;8.584;2023-01-15T13:10:33;5.10;99.90
61255;DHT22;47128;47.530;8.584;2023-01-15T13:13:10;5.20;99.90
61255;DHT22;47128;47.530;8.584;2023-01-15T13:15:38;5.20;99.90
61255;DHT22;47128;47.530;8.584;2023-01-15T13:18:13;5.30;99.90
61255;DHT22;47128;47.530;8.584;2023-01-15T13:20:47;5.30;99.90
61255;DHT22;47128;47.530;8.584;2023-01-15T13:28:18;5.30;99.90
61255;DHT22;47128;47.530;8.584;2023-01-15T13:30:57;5.30;99.90
61255;DHT22;47128;47.530;8.584;2023-01-15T13:33:31;5.40;99.90
61255;DHT22;47128;47.530;8.584;2023-01-15T13:36:10;5.40;99.90
61255;DHT22;47128;47.530;8.584;2023-01-15T13:38:38;5.40;99.90
61255;DHT22;47128;47.530;8.584;2023-01-15T13:41:05;5.30;99.90
61255;DHT22;47128;47.530;8.584;2023-01-15T13:43:33;5.40;99.90
61255;DHT22;47128;47.530;8.584;2023-01-15T13:46:02;5.40;99.90
61255;DHT22;47128;47.530;8.584;2023-01-15T13:48:32;5.50;99.90
61255;DHT22;47128;47.530;8.584;2023-01-15T13:50:59;5.50;99.90
61255;DHT22;47128;47.530;8.584;2023-01-15T13:53:37;5.40;99.90
61255;DHT22;47128;47.530;8.584;2023-01-15T13:56:05;5.40;99.90
61255;DHT22;47128;47.530;8.584;2023-01-15T13:58:34;5.40;99.90
61255;DHT22;47128;47.530;8.584;2023-01-15T14:06:19;5.40;99.90
61255;DHT22;47128;47.530;8.584;2023-01-15T14:08:45;5.30;99.90
61255;DHT22;47128;47.530;8.584;2023-01-15T14:14:00;5.20;99.90
61255;DHT22;47128;47.530;8.584;2023-01-15T14:19:09;5.30;99.90
61255;DHT22;47128;47.530;8.584;2023-01-15T14:27:04;5.40;99.90
61255;DHT22;47128;47.530;8.584;2023-01-15T14:29:41;5.30;99.90
61255;DHT22;47128;47.530;8.584;2023-01-15T14:34:52;5.40;99.90
61255;DHT22;47128;47.530;8.584;2023-01-15T14:40:15;5.50;99.90
61255;DHT22;47128;47.530;8.584;2023-01-15T14:42:41;5.50;99.90
61255;DHT22;47128;47.530;8.584;2023-01-15T14:45:26;5.50;99.90
61255;DHT22;47128;47.530;8.584;2023-01-15T14:47:56;5.40;99.90
61255;DHT22;47128;47.530;8.584;2023-01-15T14:50:29;5.40;99.90
61255;DHT22;47128;47.530;8.584;2023-01-15T14:53:00;5.40;99.90
61255;DHT22;47128;47.530;8.584;2023-01-15T14:55:27;5.50;99.90
61255;DHT22;47128;47.530;8.584;2023-01-15T14:58:00;5.60;99.90
61255;DHT22;47128;47.530;8.584;2023-01-15T15:00:29;5.70;99.90
61255;DHT22;47128;47.530;8.584;2023-01-15T15:02:55;5.70;99.90
61255;DHT22;47128;47.530;8.584;2023-01-15T15:05:21;5.70;99.90
61255;DHT22;47128;47.530;8.584;2023-01-15T15:07:47;5.60;99.90
61255;DHT22;47128;47.530;8.584;2023-01-15T15:20:23;5.40;99.90
61255;DHT22;47128;47.530;8.584;2023-01-15T15:22:52;5.30;99.90
61255;DHT22;47128;47.530;8.584;2023-01-15T15:25:23;5.30;99.90
61255;DHT22;47128;47.530;8.584;2023-01-15T15:28:11;5.40;99.90
61255;DHT22;47128;47.530;8.584;2023-01-15T15:30:38;5.30;99.90
61255;DHT22;47128;47.530;8.584;2023-01-15T15:33:05;5.30;99.90
61255;DHT22;47128;47.530;8.584;2023-01-15T15:35:31;5.20;99.90
61255;DHT22;47128;47.530;8.584;2023-01-15T15:38:01;5.10;99.90
61255;DHT22;47128;47.530;8.584;2023-01-15T15:40:31;5.00;99.90
61255;DHT22;47128;47.530;8.584;2023-01-15T15:43:18;5.00;99.90
61255;DHT22;47128;47.530;8.584;2023-01-15T15:46:03;5.00;99.90
61255;DHT22;47128;47.530;8.584;2023-01-15T15:49:04;4.90;99.90
61255;DHT22;47128;47.530;8.584;2023-01-15T15:56:35;4.80;99.90
61255;DHT22;47128;47.530;8.584;2023-01-15T15:59:02;4.80;99.90
61255;DHT22;47128;47.530;8.584;2023-01-15T16:01:30;4.80;99.90
61255;DHT22;47128;47.530;8.584;2023-01-15T16:03:56;4.80;99.90
61255;DHT22;47128;47.530;8.584;2023-01-15T16:06:22;4.80;99.90
61255;DHT22;47128;47.530;8.584;2023-01-15T16:08:51;4.70;99.90
61255;DHT22;47128;47.530;8.584;2023-01-15T16:11:17;4.80;99.90
61255;DHT22;47128;47.530;8.584;2023-01-15T16:13:44;4.80;99.90
61255;DHT22;47128;47.530;8.584;2023-01-15T16:16:10;4.80;99.90
61255;DHT22;47128;47.530;8.584;2023-01-15T16:18:41;4.70;99.90
61255;DHT22;47128;47.530;8.584;2023-01-15T16:21:09;4.70;99.90
61255;DHT22;47128;47.530;8.584;2023-01-15T16:23:35;4.70;99.90
61255;DHT22;47128;47.530;8.584;2023-01-15T16:28:34;4.80;99.90
61255;DHT22;47128;47.530;8.584;2023-01-15T16:31:01;4.70;99.90
61255;DHT22;47128;47.530;8.584;2023-01-15T16:33:27;4.70;99.90
61255;DHT22;47128;47.530;8.584;2023-01-15T16:35:57;4.60;99.90
61255;DHT22;47128;47.530;8.584;2023-01-15T16:38:22;4.50;99.90
61255;DHT22;47128;47.530;8.584;2023-01-15T16:40:48;4.50;99.90
61255;DHT22;47128;47.530;8.584;2023-01-15T16:45:41;4.40;99.90
61255;DHT22;47128;47.530;8.584;2023-01-15T16:50:47;4.30;99.90
61255;DHT22;47128;47.530;8.584;2023-01-15T16:55:57;4.20;99.90
61255;DHT22;47128;47.530;8.584;2023-01-15T16:58:32;4.10;99.90
61255;DHT22;47128;47.530;8.584;2023-01-15T17:00:58;4.10;99.90
61255;DHT22;47128;47.530;8.584;2023-01-15T17:03:24;4.00;99.90
61255;DHT22;47128;47.530;8.584;2023-01-15T17:05:54;3.90;99.90
61255;DHT22;47128;47.530;8.584;2023-01-15T17:08:21;3.90;99.90
61255;DHT22;47128;47.530;8.584;2023-01-15T17:10:54;4.00;99.90
61255;DHT22;47128;47.530;8.584;2023-01-15T17:13:20;4.10;99.90
61255;DHT22;47128;47.530;8.584;2023-01-15T17:15:46;4.10;99.90
61255;DHT22;47128;47.530;8.584;2023-01-15T17:18:19;4.20;99.90
61255;DHT22;47128;47.530;8.584;2023-01-15T17:20:45;4.10;99.90
61255;DHT22;47128;47.530;8.584;2023-01-15T17:23:10;4.20;99.90
61255;DHT22;47128;47.530;8.584;2023-01-15T17:25:37;4.30;99.90